Time;durP1;ratioP1;P1;durP2;ratioP2;P2;SDS_P1;SDS_P2;PMS_P1;PMS_P2;Temp;Humidity;BMP_temperature;BMP_pressure;BME280_temperature;BME280_humidity;BME280_pressure;Samples;Min_cycle;Max_cycle;Signal;HPM_P1;HPM_P2
2023/09/30 00:01:11;;;;;;;357.30;110.23;;;;;13.70;97401.00;;;;5041816;28;20607;-90
2023/09/30 00:04:03;;;;;;;361.87;119.37;;;;;13.90;97400.00;;;;5049597;28;20266;-89
2023/09/30 00:06:52;;;;;;;351.70;104.83;;;;;14.10;97392.00;;;;5043919;28;20208;-89
2023/09/30 00:09:41;;;;;;;352.13;109.73;;;;;14.20;97396.00;;;;5040668;28;20225;-88
2023/09/30 00:12:30;;;;;;;353.50;109.00;;;;;14.00;97393.00;;;;5045949;28;20212;-89
2023/09/30 00:15:20;;;;;;;352.70;111.17;;;;;13.90;97383.00;;;;5048623;28;20283;-89
2023/09/30 00:18:09;;;;;;;359.70;114.40;;;;;13.40;97389.00;;;;5063626;28;20195;-88
2023/09/30 00:21:00;;;;;;;351.70;111.47;;;;;12.90;97381.00;;;;5051836;28;20688;-89
2023/09/30 00:23:49;;;;;;;353.57;107.13;;;;;13.10;97390.00;;;;5054005;28;20211;-89
2023/09/30 00:26:38;;;;;;;357.23;114.70;;;;;13.20;97388.00;;;;5049033;28;20203;-88
2023/09/30 00:29:28;;;;;;;353.37;109.03;;;;;13.50;97392.00;;;;5061202;28;20242;-89
2023/09/30 00:32:17;;;;;;;357.53;108.50;;;;;13.40;97390.00;;;;5050122;28;20228;-89
2023/09/30 00:35:09;;;;;;;362.50;112.90;;;;;12.90;97385.00;;;;5057207;28;20687;-87
2023/09/30 00:37:59;;;;;;;354.17;103.90;;;;;12.80;97389.00;;;;5048487;28;20204;-89
2023/09/30 00:40:49;;;;;;;352.77;108.60;;;;;13.30;97385.00;;;;5052874;28;20560;-89
2023/09/30 00:43:38;;;;;;;351.47;105.00;;;;;13.70;97382.00;;;;5049857;28;20351;-90
2023/09/30 00:46:29;;;;;;;349.37;105.53;;;;;13.50;97382.00;;;;5054857;28;20669;-89
2023/09/30 00:49:19;;;;;;;348.83;106.00;;;;;13.40;97379.00;;;;5054127;28;20599;-88
2023/09/30 00:52:08;;;;;;;350.50;105.47;;;;;13.10;97373.00;;;;5060157;28;20607;-88
2023/09/30 00:54:59;;;;;;;337.80;110.13;;;;;12.90;97371.00;;;;5047203;28;21058;-89
2023/09/30 00:57:48;;;;;;;326.60;93.97;;;;;13.10;97384.00;;;;5051790;28;20426;-89
2023/09/30 01:00:38;;;;;;;332.13;98.77;;;;;12.80;97379.00;;;;5049367;28;20807;-87
2023/09/30 01:03:27;;;;;;;323.73;89.00;;;;;12.80;97373.00;;;;5053409;28;20473;-90
2023/09/30 01:06:17;;;;;;;336.90;96.00;;;;;13.30;97374.00;;;;5049387;28;20516;-88
2023/09/30 01:09:06;;;;;;;341.43;98.77;;;;;13.40;97372.00;;;;5053174;28;20470;-88
2023/09/30 01:11:57;;;;;;;331.07;93.13;;;;;13.20;97376.00;;;;5048896;28;20470;-88
2023/09/30 01:14:46;;;;;;;330.37;91.73;;;;;13.10;97371.00;;;;5051256;28;20441;-89
2023/09/30 01:17:36;;;;;;;325.47;91.40;;;;;13.40;97371.00;;;;5047740;28;20839;-89
2023/09/30 01:20:26;;;;;;;321.33;97.03;;;;;13.60;97372.00;;;;5047234;28;20508;-89
2023/09/30 01:23:17;;;;;;;338.10;102.40;;;;;13.20;97367.00;;;;5045972;28;20438;-89
2023/09/30 01:26:08;;;;;;;334.27;96.30;;;;;13.10;97374.00;;;;5053883;28;20430;-88
2023/09/30 01:28:58;;;;;;;325.70;91.10;;;;;12.90;97371.00;;;;5054461;28;20463;-89
2023/09/30 01:31:47;;;;;;;327.90;93.03;;;;;13.20;97370.00;;;;5048857;28;20485;-87
2023/09/30 01:34:37;;;;;;;325.40;92.20;;;;;13.20;97374.00;;;;5043115;28;20431;-89
2023/09/30 01:37:29;;;;;;;328.60;91.20;;;;;13.50;97378.00;;;;5056327;28;20474;-88
2023/09/30 01:40:20;;;;;;;335.10;95.23;;;;;13.00;97369.00;;;;5058101;28;20420;-87
2023/09/30 01:43:09;;;;;;;336.87;95.27;;;;;13.40;97369.00;;;;5060557;28;20435;-89
2023/09/30 01:45:58;;;;;;;328.77;92.03;;;;;13.70;97359.00;;;;5057174;28;20439;-87
2023/09/30 01:48:47;;;;;;;323.93;88.90;;;;;13.60;97358.00;;;;5051210;28;20743;-88
2023/09/30 01:51:37;;;;;;;320.37;89.33;;;;;13.50;97354.00;;;;5054869;28;20457;-88
2023/09/30 01:54:26;;;;;;;318.30;87.07;;;;;13.30;97351.00;;;;5053455;28;20433;-88
2023/09/30 01:57:16;;;;;;;328.33;94.57;;;;;13.10;97347.00;;;;5061601;28;20538;-87
2023/09/30 02:00:09;;;;;;;329.53;94.33;;;;;12.70;97349.00;;;;5066958;28;20449;-89
2023/09/30 02:02:58;;;;;;;323.40;88.00;;;;;12.40;97354.00;;;;5055295;28;20496;-89
2023/09/30 02:05:48;;;;;;;319.67;88.03;;;;;12.40;97361.00;;;;5052781;28;20423;-89
2023/09/30 02:08:37;;;;;;;320.13;87.67;;;;;12.50;97370.00;;;;5050047;28;20419;-89
2023/09/30 02:11:26;;;;;;;316.00;86.23;;;;;12.60;97355.00;;;;5052659;28;20939;-88
2023/09/30 02:14:17;;;;;;;327.33;89.53;;;;;13.20;97369.00;;;;5060364;28;20933;-89
2023/09/30 02:17:06;;;;;;;326.60;91.73;;;;;13.30;97378.00;;;;5051876;28;20424;-89
2023/09/30 02:19:55;;;;;;;321.53;87.87;;;;;13.20;97373.00;;;;5049828;28;20431;-88
2023/09/30 02:22:45;;;;;;;322.13;89.87;;;;;13.10;97372.00;;;;5059565;28;21010;-89
2023/09/30 02:25:34;;;;;;;314.77;86.03;;;;;13.30;97367.00;;;;5048420;28;20431;-88
2023/09/30 02:28:23;;;;;;;312.17;83.57;;;;;13.60;97370.00;;;;5049957;28;20411;-88
2023/09/30 02:31:14;;;;;;;328.20;93.70;;;;;13.70;97377.00;;;;5053874;28;21030;-88
2023/09/30 02:34:03;;;;;;;330.07;94.80;;;;;13.20;97365.00;;;;5050125;28;20423;-88
2023/09/30 02:36:55;;;;;;;319.23;88.27;;;;;12.80;97383.00;;;;5054297;28;20443;-88
2023/09/30 02:39:44;;;;;;;317.87;86.70;;;;;12.90;97382.00;;;;5047350;28;20412;-88
2023/09/30 02:42:34;;;;;;;317.00;87.97;;;;;12.60;97376.00;;;;5054551;28;20497;-89
2023/09/30 02:45:23;;;;;;;316.33;87.80;;;;;13.00;97377.00;;;;5050131;28;20422;-89
2023/09/30 02:48:13;;;;;;;325.07;90.63;;;;;12.50;97378.00;;;;5059708;28;20440;-87
2023/09/30 02:51:03;;;;;;;317.63;86.50;;;;;12.60;97365.00;;;;5057699;28;20467;-88
2023/09/30 02:53:52;;;;;;;309.67;81.60;;;;;12.80;97369.00;;;;5057246;28;20940;-89
2023/09/30 02:56:41;;;;;;;321.23;88.10;;;;;12.80;97371.00;;;;5048240;28;20420;-88
2023/09/30 02:59:30;;;;;;;314.73;83.87;;;;;12.90;97369.00;;;;5049046;28;20442;-89
2023/09/30 03:02:21;;;;;;;319.77;86.63;;;;;12.80;97344.00;;;;5052402;28;20436;-86
2023/09/30 03:05:13;;;;;;;322.33;90.17;;;;;13.30;97355.00;;;;5053011;28;20434;-88
2023/09/30 03:08:02;;;;;;;314.97;83.93;;;;;13.40;97354.00;;;;5054172;28;20450;-88
2023/09/30 03:10:52;;;;;;;311.13;81.97;;;;;13.30;97357.00;;;;5065616;28;20462;-87
2023/09/30 03:13:42;;;;;;;309.20;81.80;;;;;13.10;97366.00;;;;5072098;28;20511;-88
2023/09/30 03:16:32;;;;;;;309.67;83.07;;;;;13.10;97355.00;;;;5065648;28;20526;-88
2023/09/30 03:19:21;;;;;;;311.93;83.47;;;;;12.70;97355.00;;;;5059977;28;20419;-87
2023/09/30 03:22:11;;;;;;;319.37;88.40;;;;;13.30;97352.00;;;;5058707;28;20451;-89
2023/09/30 03:25:01;;;;;;;311.13;84.57;;;;;13.80;97354.00;;;;5050546;28;20435;-88
2023/09/30 03:27:50;;;;;;;311.20;84.80;;;;;13.80;97363.00;;;;5056294;28;20481;-88
2023/09/30 03:30:40;;;;;;;310.67;84.07;;;;;14.10;97358.00;;;;5047345;28;20448;-89
2023/09/30 03:33:29;;;;;;;312.03;86.57;;;;;14.20;97357.00;;;;5050293;28;20435;-89
2023/09/30 03:36:18;;;;;;;316.17;88.77;;;;;14.10;97358.00;;;;5050333;28;20470;-89
2023/09/30 03:39:14;;;;;;;326.47;94.73;;;;;14.20;97359.00;;;;5049816;28;20431;-90
2023/09/30 03:42:03;;;;;;;311.80;87.03;;;;;14.10;97368.00;;;;5057273;28;20988;-88
2023/09/30 03:44:53;;;;;;;317.57;89.23;;;;;13.70;97359.00;;;;5060696;28;20430;-88
2023/09/30 03:47:43;;;;;;;310.57;85.67;;;;;13.60;97361.00;;;;5053565;28;20423;-89
2023/09/30 03:50:33;;;;;;;318.20;89.83;;;;;14.00;97354.00;;;;5060003;28;20456;-88
2023/09/30 03:53:25;;;;;;;305.87;82.30;;;;;14.40;97356.00;;;;5051311;28;20432;-90
2023/09/30 03:56:18;;;;;;;313.17;87.90;;;;;14.30;97352.00;;;;5051230;28;20432;-90
2023/09/30 03:59:08;;;;;;;326.33;97.33;;;;;14.40;97354.00;;;;5053129;28;20443;-90
2023/09/30 04:02:01;;;;;;;309.30;86.27;;;;;14.60;97363.00;;;;5053469;28;20451;-89
2023/09/30 04:04:53;;;;;;;308.93;85.73;;;;;14.70;97356.00;;;;5051712;28;20416;-89
2023/09/30 04:07:43;;;;;;;306.17;84.67;;;;;15.10;97362.00;;;;5047279;28;20420;-91
2023/09/30 04:10:32;;;;;;;310.73;88.27;;;;;15.10;97378.00;;;;5046152;28;21057;-89
2023/09/30 04:13:25;;;;;;;311.90;88.90;;;;;15.30;97362.00;;;;5053992;28;20430;-90
2023/09/30 04:16:14;;;;;;;316.03;89.40;;;;;15.00;97366.00;;;;5048152;28;20830;-90
2023/09/30 04:19:07;;;;;;;321.13;93.53;;;;;14.80;97361.00;;;;5048559;28;20455;-88
2023/09/30 04:21:56;;;;;;;321.57;95.37;;;;;14.90;97378.00;;;;5064757;28;20454;-89
2023/09/30 04:24:46;;;;;;;325.80;97.70;;;;;15.10;97365.00;;;;5039983;28;20428;-87
2023/09/30 04:27:35;;;;;;;313.93;90.33;;;;;14.80;97365.00;;;;5049755;28;20476;-90
2023/09/30 04:30:27;;;;;;;314.83;91.93;;;;;15.30;97370.00;;;;5050426;28;20463;-90
2023/09/30 04:33:17;;;;;;;318.10;93.43;;;;;15.00;97369.00;;;;5049672;28;21089;-89
2023/09/30 04:36:08;;;;;;;321.67;93.63;;;;;15.30;97380.00;;;;5048331;28;20438;-88
2023/09/30 04:39:00;;;;;;;314.20;89.47;;;;;15.40;97372.00;;;;5050605;28;20431;-88
2023/09/30 04:41:50;;;;;;;314.73;89.87;;;;;15.30;97377.00;;;;5068531;28;20446;-88
2023/09/30 04:44:41;;;;;;;312.23;90.23;;;;;15.40;97382.00;;;;5044515;28;20839;-89
2023/09/30 04:47:32;;;;;;;314.93;91.87;;;;;15.50;97388.00;;;;5050884;28;20430;-88
2023/09/30 04:50:22;;;;;;;317.90;93.17;;;;;15.70;97391.00;;;;5048189;28;20435;-90
2023/09/30 04:53:12;;;;;;;319.90;94.40;;;;;15.70;97397.00;;;;5047988;28;21021;-88
2023/09/30 04:56:02;;;;;;;313.97;91.20;;;;;15.20;97396.00;;;;5048192;28;20442;-88
2023/09/30 04:58:51;;;;;;;313.03;91.37;;;;;15.20;97401.00;;;;5050570;28;20431;-91
2023/09/30 05:01:40;;;;;;;305.60;85.40;;;;;15.60;97405.00;;;;5047219;28;20450;-89
2023/09/30 05:04:31;;;;;;;312.57;89.43;;;;;15.30;97410.00;;;;5049688;28;20426;-89
2023/09/30 05:07:21;;;;;;;321.33;94.27;;;;;15.90;97415.00;;;;5050037;28;20446;-89
2023/09/30 05:10:13;;;;;;;325.40;99.23;;;;;16.10;97412.00;;;;5051746;28;20431;-89
2023/09/30 05:13:02;;;;;;;321.70;97.93;;;;;16.20;97417.00;;;;5049456;28;20471;-87
2023/09/30 05:15:53;;;;;;;314.30;93.93;;;;;16.20;97427.00;;;;5058790;28;20442;-90
2023/09/30 05:18:42;;;;;;;316.93;94.20;;;;;16.00;97416.00;;;;5048784;28;20925;-87
2023/09/30 05:21:35;;;;;;;321.63;98.00;;;;;16.00;97417.00;;;;5046248;28;20439;-88
2023/09/30 05:24:25;;;;;;;334.07;104.23;;;;;16.10;97428.00;;;;5039037;28;20456;-90
2023/09/30 05:27:14;;;;;;;324.70;99.80;;;;;16.00;97430.00;;;;5040647;28;20440;-89
2023/09/30 05:30:05;;;;;;;326.20;100.23;;;;;16.10;97441.00;;;;5053863;28;20450;-90
2023/09/30 05:32:55;;;;;;;318.60;96.17;;;;;15.90;97436.00;;;;5057498;28;20450;-88
2023/09/30 05:35:44;;;;;;;320.17;97.90;;;;;15.80;97439.00;;;;5050079;28;20427;-88
2023/09/30 05:38:34;;;;;;;321.63;98.47;;;;;16.00;97440.00;;;;5050227;28;20438;-89
2023/09/30 05:41:24;;;;;;;318.70;96.57;;;;;16.10;97431.00;;;;5048847;28;20459;-90
2023/09/30 05:44:14;;;;;;;330.07;101.80;;;;;15.80;97448.00;;;;5051757;28;20454;-89
2023/09/30 05:47:03;;;;;;;314.60;94.67;;;;;15.60;97447.00;;;;5052182;28;20435;-89
2023/09/30 05:49:52;;;;;;;315.63;93.33;;;;;15.70;97460.00;;;;5046197;28;20818;-88
2023/09/30 05:52:41;;;;;;;315.83;94.30;;;;;16.00;97461.00;;;;5044038;28;21021;-89
2023/09/30 05:55:33;;;;;;;313.33;92.67;;;;;16.00;97469.00;;;;5042693;28;20510;-89
2023/09/30 05:58:23;;;;;;;313.73;93.70;;;;;15.70;97467.00;;;;5051648;28;20428;-89
2023/09/30 06:01:14;;;;;;;327.70;103.00;;;;;16.20;97471.00;;;;5051623;28;21115;-90
2023/09/30 06:04:04;;;;;;;325.30;101.27;;;;;16.30;97468.00;;;;5062445;28;20428;-89
2023/09/30 06:06:54;;;;;;;315.80;92.33;;;;;16.40;97476.00;;;;5060478;28;20446;-89
2023/09/30 06:09:43;;;;;;;318.40;95.60;;;;;16.30;97475.00;;;;5048881;28;21018;-89
2023/09/30 06:12:34;;;;;;;322.33;99.33;;;;;16.40;97460.00;;;;5041720;28;20467;-89
2023/09/30 06:15:25;;;;;;;325.73;101.97;;;;;16.10;97471.00;;;;5036567;28;20542;-90
2023/09/30 06:18:15;;;;;;;325.13;101.87;;;;;16.30;97467.00;;;;5037342;28;20451;-90
2023/09/30 06:21:04;;;;;;;322.17;100.40;;;;;16.10;97460.00;;;;5033269;28;20470;-87
2023/09/30 06:23:54;;;;;;;319.03;95.53;;;;;16.10;97477.00;;;;5035267;28;20482;-89
2023/09/30 06:26:43;;;;;;;323.10;97.23;;;;;16.40;97479.00;;;;5035729;28;20440;-90
2023/09/30 06:29:34;;;;;;;313.13;93.50;;;;;16.40;97485.00;;;;5045989;28;20863;-89
2023/09/30 06:32:23;;;;;;;309.73;90.77;;;;;16.30;97482.00;;;;5063287;28;20473;-89
2023/09/30 06:35:12;;;;;;;334.50;107.80;;;;;16.50;97487.00;;;;5033267;28;20447;-90
2023/09/30 06:38:06;;;;;;;347.37;120.23;;;;;16.50;97485.00;;;;5038838;28;20444;-89
2023/09/30 06:40:56;;;;;;;344.70;113.83;;;;;16.80;97486.00;;;;5040972;28;20200;-88
2023/09/30 06:43:46;;;;;;;348.77;120.70;;;;;16.80;97472.00;;;;5042055;28;20614;-89
2023/09/30 06:46:37;;;;;;;355.73;135.23;;;;;17.20;97483.00;;;;5040374;28;20238;-89
2023/09/30 06:49:27;;;;;;;346.50;117.80;;;;;17.30;97487.00;;;;5040545;28;20254;-89
2023/09/30 06:52:17;;;;;;;355.00;123.93;;;;;17.10;97490.00;;;;5040650;28;20629;-89
2023/09/30 06:55:07;;;;;;;345.23;116.33;;;;;17.20;97495.00;;;;5042366;28;20901;-89
2023/09/30 06:57:57;;;;;;;352.53;124.67;;;;;17.20;97495.00;;;;5038965;28;20202;-91
2023/09/30 07:00:46;;;;;;;355.33;128.87;;;;;17.20;97487.00;;;;5039387;28;20208;-89
2023/09/30 07:03:37;;;;;;;352.10;123.27;;;;;17.60;97496.00;;;;5039664;28;20193;-90
2023/09/30 07:06:27;;;;;;;358.27;132.07;;;;;17.80;97493.00;;;;5034591;28;20245;-88
2023/09/30 07:09:16;;;;;;;372.93;143.57;;;;;17.80;97496.00;;;;5037708;28;20208;-90
2023/09/30 07:12:06;;;;;;;370.80;144.50;;;;;18.00;97497.00;;;;5037299;28;20228;-90
2023/09/30 07:14:56;;;;;;;354.43;137.20;;;;;18.10;97510.00;;;;5037606;28;20616;-89
2023/09/30 07:17:54;;;;;;;356.87;141.43;;;;;18.50;97503.00;;;;5038498;28;20573;-89
2023/09/30 07:21:12;;;;;;;361.43;140.00;;;;;18.60;97509.00;;;;5040560;28;20203;-89
2023/09/30 07:24:39;;;;;;;359.37;140.23;;;;;18.30;97516.00;;;;5041107;28;20666;-90
2023/09/30 07:27:44;;;;;;;362.97;144.70;;;;;18.60;97509.00;;;;5038253;28;20251;-88
2023/09/30 07:31:06;;;;;;;;;;;;;;;;;;;;;
2023/09/30 07:34:17;;;;;;;369.83;150.07;;;;;18.80;97522.00;;;;5037717;28;20204;-89
2023/09/30 07:37:25;;;;;;;370.17;154.43;;;;;18.80;97532.00;;;;5039248;28;20189;-88
2023/09/30 07:40:27;;;;;;;356.43;144.40;;;;;19.30;97520.00;;;;5041146;28;20208;-88
2023/09/30 07:43:17;;;;;;;366.87;165.23;;;;;19.50;97526.00;;;;5049474;28;20210;-90
2023/09/30 07:46:07;;;;;;;361.87;162.40;;;;;19.50;97528.00;;;;5042059;28;20216;-90
2023/09/30 07:48:58;;;;;;;358.27;148.73;;;;;19.70;97534.00;;;;5048866;28;20197;-90
2023/09/30 07:51:48;;;;;;;361.53;158.93;;;;;19.30;97529.00;;;;5049431;28;20254;-89
2023/09/30 07:54:39;;;;;;;365.57;175.83;;;;;19.40;97536.00;;;;5048147;28;20224;-90
2023/09/30 07:57:28;;;;;;;358.30;164.67;;;;;19.50;97538.00;;;;5050359;28;20202;-90
2023/09/30 08:00:21;;;;;;;368.47;169.27;;;;;19.80;97526.00;;;;5058034;28;20216;-89
2023/09/30 08:03:10;;;;;;;365.27;162.53;;;;;19.90;97530.00;;;;5051029;28;20202;-90
2023/09/30 08:06:00;;;;;;;355.20;157.47;;;;;20.30;97524.00;;;;5047131;28;20244;-88
2023/09/30 08:09:12;;;;;;;361.40;172.37;;;;;20.60;97524.00;;;;5038765;28;20209;-90
2023/09/30 08:12:50;;;;;;;360.83;174.23;;;;;20.40;97538.00;;;;5043694;28;20220;-91
2023/09/30 08:15:43;;;;;;;395.63;201.50;;;;;20.30;97529.00;;;;5033648;28;20246;-89
2023/09/30 08:18:32;;;;;;;363.27;184.30;;;;;20.70;97517.00;;;;5050197;28;20637;-89
2023/09/30 08:21:21;;;;;;;378.37;204.90;;;;;20.90;97512.00;;;;5047008;28;20235;-88
2023/09/30 08:24:15;;;;;;;404.47;215.90;;;;;21.50;97519.00;;;;5083451;22;20322;-90
2023/09/30 08:27:06;;;;;;;375.90;223.20;;;;;21.40;97522.00;;;;5076210;28;20230;-87
2023/09/30 08:29:59;;;;;;;375.70;217.27;;;;;21.40;97520.00;;;;5077062;28;20191;-89
2023/09/30 08:32:48;;;;;;;369.03;214.80;;;;;22.00;97521.00;;;;5051150;28;20228;-88
2023/09/30 08:35:38;;;;;;;377.50;230.37;;;;;22.10;97523.00;;;;5052072;28;20197;-89
2023/09/30 08:38:27;;;;;;;373.10;230.77;;;;;21.60;97524.00;;;;5047701;28;20205;-88
2023/09/30 08:41:30;;;;;;;382.53;238.20;;;;;21.50;97533.00;;;;5037884;28;20609;-87
2023/09/30 08:44:21;;;;;;;378.83;233.30;;;;;22.10;97540.00;;;;5040430;28;20236;-86
2023/09/30 08:47:11;;;;;;;370.77;224.10;;;;;21.70;97540.00;;;;5039818;28;20201;-87
2023/09/30 08:50:05;;;;;;;373.17;225.00;;;;;21.80;97530.00;;;;5044978;28;20208;-87
2023/09/30 08:52:56;;;;;;;370.87;225.13;;;;;22.20;97534.00;;;;5046471;28;20194;-88
2023/09/30 08:55:45;;;;;;;366.47;211.10;;;;;22.20;97534.00;;;;5044951;28;20204;-87
2023/09/30 08:58:35;;;;;;;385.07;255.40;;;;;22.70;97523.00;;;;5041779;28;20202;-88
2023/09/30 09:01:26;;;;;;;379.97;240.70;;;;;23.00;97531.00;;;;5037955;28;20226;-88
2023/09/30 09:04:15;;;;;;;389.13;251.63;;;;;22.90;97530.00;;;;5040992;28;20223;-88
2023/09/30 09:07:05;;;;;;;382.97;252.63;;;;;22.70;97530.00;;;;5038985;28;20610;-88
2023/09/30 09:10:07;;;;;;;377.60;252.53;;;;;23.00;97526.00;;;;5038892;28;20271;-87
2023/09/30 09:12:57;;;;;;;371.90;243.23;;;;;23.60;97533.00;;;;5036946;28;20263;-87
2023/09/30 09:15:47;;;;;;;367.97;228.63;;;;;23.40;97533.00;;;;5043618;28;20227;-88
2023/09/30 09:18:38;;;;;;;373.33;243.43;;;;;23.80;97528.00;;;;5042874;28;20205;-87
2023/09/30 09:21:27;;;;;;;383.57;268.90;;;;;23.90;97534.00;;;;5047525;28;20235;-89
2023/09/30 09:26:51;;;;;;;387.70;280.37;;;;;24.70;97533.00;;;;5085233;28;20618;-67
2023/09/30 09:29:42;;;;;;;385.60;288.43;;;;;24.90;97535.00;;;;5065035;28;20594;-68
2023/09/30 09:32:31;;;;;;;389.80;299.53;;;;;25.00;97543.00;;;;5064967;28;20227;-67
2023/09/30 09:35:21;;;;;;;389.13;290.23;;;;;25.10;97523.00;;;;5063175;28;20223;-69
2023/09/30 09:38:10;;;;;;;394.23;299.70;;;;;25.90;97518.00;;;;5062588;28;20207;-68
2023/09/30 09:41:01;;;;;;;383.10;286.87;;;;;26.50;97517.00;;;;5064878;28;20234;-68
2023/09/30 09:43:51;;;;;;;383.70;308.33;;;;;26.70;97512.00;;;;5063198;28;20199;-68
2023/09/30 09:46:40;;;;;;;396.17;318.03;;;;;27.10;97509.00;;;;5059387;28;20711;-68
2023/09/30 09:49:30;;;;;;;410.23;336.40;;;;;27.40;97510.00;;;;5055863;28;20222;-67
2023/09/30 09:52:21;;;;;;;398.70;338.37;;;;;27.70;97512.00;;;;5053656;28;20237;-68
2023/09/30 09:55:13;;;;;;;405.30;355.37;;;;;27.70;97515.00;;;;5054768;28;20223;-68
2023/09/30 09:58:04;;;;;;;398.80;353.60;;;;;27.90;97510.00;;;;5060009;28;20208;-68
2023/09/30 10:00:57;;;;;;;419.57;375.10;;;;;27.50;97511.00;;;;5053704;28;20259;-68
2023/09/30 10:03:46;;;;;;;419.53;374.67;;;;;27.70;97512.00;;;;5052473;28;20255;-68
2023/09/30 10:06:39;;;;;;;440.17;394.50;;;;;28.10;97501.00;;;;5056940;28;20228;-68
2023/09/30 10:09:29;;;;;;;435.83;389.13;;;;;28.00;97496.00;;;;5056379;28;20308;-68
2023/09/30 10:12:19;;;;;;;427.33;381.73;;;;;28.50;97504.00;;;;5062284;28;20699;-68
2023/09/30 10:15:40;;;;;;;423.40;378.43;;;;;28.90;97512.00;;;;5062276;28;20818;-68
2023/09/30 10:18:30;;;;;;;421.00;376.17;;;;;29.10;97497.00;;;;5052186;28;20206;-68
2023/09/30 10:21:19;;;;;;;452.47;405.77;;;;;29.10;97493.00;;;;5050689;28;20747;-68
2023/09/30 10:24:29;;;;;;;467.53;420.33;;;;;29.40;97491.00;;;;5054528;28;20199;-68
2023/09/30 10:27:37;;;;;;;481.30;433.53;;;;;29.40;97494.00;;;;5050901;28;20582;-68
2023/09/30 10:30:26;;;;;;;486.57;439.33;;;;;29.80;97487.00;;;;5061610;28;20743;-69
2023/09/30 10:33:15;;;;;;;478.90;432.07;;;;;30.40;97486.00;;;;5060664;28;20718;-68
2023/09/30 10:36:08;;;;;;;495.67;448.43;;;;;29.90;97489.00;;;;5055712;28;20205;-68
2023/09/30 10:38:57;;;;;;;523.17;474.60;;;;;30.60;97476.00;;;;5044956;28;20226;-68
2023/09/30 10:41:53;;;;;;;518.47;471.17;;;;;31.20;97469.00;;;;5047354;28;20218;-68
2023/09/30 10:44:42;;;;;;;545.93;496.97;;;;;31.50;97472.00;;;;5048145;28;20212;-68
2023/09/30 10:47:41;;;;;;;561.80;513.17;;;;;30.80;97471.00;;;;5051818;28;20683;-69
2023/09/30 10:50:52;;;;;;;561.90;513.73;;;;;30.90;97473.00;;;;5045681;28;20232;-68
2023/09/30 10:53:48;;;;;;;562.50;514.03;;;;;31.20;97503.00;;;;5049932;28;20207;-67
2023/09/30 10:56:37;;;;;;;572.73;523.77;;;;;31.90;97464.00;;;;5048536;28;20218;-67
2023/09/30 10:59:30;;;;;;;582.73;532.17;;;;;30.60;97499.00;;;;5029623;28;20215;-68
2023/09/30 11:02:22;;;;;;;582.60;532.47;;;;;29.80;97460.00;;;;5026499;28;20225;-67
2023/09/30 11:05:13;;;;;;;583.73;533.87;;;;;29.20;97463.00;;;;5027271;28;20624;-70
2023/09/30 11:08:04;;;;;;;567.03;517.80;;;;;30.50;97502.00;;;;5032061;28;21205;-68
2023/09/30 11:10:54;;;;;;;565.77;516.83;;;;;31.70;97460.00;;;;5030159;28;20221;-68
2023/09/30 11:13:43;;;;;;;562.67;513.87;;;;;28.80;97495.00;;;;5031211;28;20256;-68
2023/09/30 11:16:41;;;;;;;571.13;521.57;;;;;28.90;97510.00;;;;5029026;28;21086;-69
2023/09/30 11:19:36;;;;;;;546.57;497.97;;;;;29.10;97451.00;;;;5025432;28;20231;-69
2023/09/30 11:22:27;;;;;;;543.33;494.30;;;;;30.70;97450.00;;;;5029460;28;20247;-69
2023/09/30 11:25:19;;;;;;;548.57;499.03;;;;;31.90;97459.00;;;;5027599;28;20226;-68
2023/09/30 11:28:17;;;;;;;552.97;504.30;;;;;32.50;97470.00;;;;5031457;28;20200;-66
2023/09/30 11:31:10;;;;;;;555.87;507.37;;;;;32.00;97481.00;;;;5034926;28;20944;-68
2023/09/30 11:34:03;;;;;;;554.40;506.33;;;;;29.50;97453.00;;;;5039800;28;20206;-67
2023/09/30 11:36:54;;;;;;;561.60;512.47;;;;;31.90;97497.00;;;;5041988;28;20206;-67
2023/09/30 11:39:43;;;;;;;559.00;511.10;;;;;30.50;97453.00;;;;5043676;28;20214;-69
2023/09/30 11:42:33;;;;;;;546.77;499.30;;;;;31.40;97495.00;;;;5038454;28;20306;-68
2023/09/30 11:45:27;;;;;;;548.50;500.13;;;;;31.30;97441.00;;;;5040528;28;20291;-68
2023/09/30 11:48:20;;;;;;;543.47;495.37;;;;;31.90;97475.00;;;;5038970;28;20199;-69
2023/09/30 11:51:09;;;;;;;562.90;514.20;;;;;31.60;97476.00;;;;5042647;28;20216;-70
2023/09/30 11:53:58;;;;;;;558.47;510.77;;;;;30.70;97492.00;;;;5042209;28;20208;-68
2023/09/30 11:56:47;;;;;;;557.93;509.53;;;;;29.80;97483.00;;;;5036006;28;20199;-68
2023/09/30 11:59:37;;;;;;;548.83;501.60;;;;;30.30;97460.00;;;;5039208;28;20214;-69
2023/09/30 12:02:28;;;;;;;549.70;502.10;;;;;32.20;97436.00;;;;5037087;28;20220;-69
2023/09/30 12:05:17;;;;;;;536.90;489.17;;;;;32.20;97452.00;;;;5036761;28;20212;-69
2023/09/30 12:08:07;;;;;;;552.13;504.03;;;;;32.60;97440.00;;;;5038128;28;20664;-69
2023/09/30 12:10:56;;;;;;;586.67;538.07;;;;;33.30;97448.00;;;;5040234;28;20233;-69
2023/09/30 12:13:48;;;;;;;581.50;533.17;;;;;33.90;97440.00;;;;5043283;28;20207;-69
2023/09/30 12:16:37;;;;;;;600.53;551.87;;;;;34.10;97439.00;;;;5042159;28;20211;-69
2023/09/30 12:19:27;;;;;;;602.17;553.10;;;;;33.60;97438.00;;;;5040900;28;20204;-69
2023/09/30 12:22:17;;;;;;;577.93;529.63;;;;;34.30;97485.00;;;;5042012;28;20224;-69
2023/09/30 12:25:08;;;;;;;578.73;531.07;;;;;33.40;97487.00;;;;5040562;28;20597;-69
2023/09/30 12:27:57;;;;;;;587.03;539.97;;;;;32.70;97469.00;;;;5044294;28;20297;-69
2023/09/30 12:30:46;;;;;;;568.80;522.30;;;;;33.00;97469.00;;;;5041969;28;20216;-69
2023/09/30 12:33:35;;;;;;;559.27;512.97;;;;;33.90;97428.00;;;;5038464;28;20217;-69
2023/09/30 12:36:26;;;;;;;570.07;522.83;;;;;34.80;97427.00;;;;5036826;28;20307;-69
2023/09/30 12:39:16;;;;;;;619.60;569.63;;;;;35.10;97424.00;;;;5043291;28;20200;-69
2023/09/30 12:42:08;;;;;;;625.10;575.87;;;;;34.60;97427.00;;;;5034184;28;20231;-70
2023/09/30 12:44:58;;;;;;;652.47;602.33;;;;;35.50;97427.00;;;;5043462;28;20211;-69
2023/09/30 12:47:47;;;;;;;664.37;614.13;;;;;34.10;97471.00;;;;5043095;28;20700;-69
2023/09/30 12:50:37;;;;;;;652.03;602.27;;;;;29.80;97444.00;;;;5046007;28;20300;-72
2023/09/30 12:53:27;;;;;;;612.83;563.80;;;;;31.70;97414.00;;;;5043743;28;20551;-68
2023/09/30 12:56:16;;;;;;;583.80;535.70;;;;;33.60;97422.00;;;;5043974;28;20212;-69
2023/09/30 12:59:05;;;;;;;584.70;536.83;;;;;34.70;97417.00;;;;5042294;28;20209;-69
2023/09/30 13:01:56;;;;;;;597.50;549.93;;;;;33.90;97455.00;;;;5039061;28;20923;-69
2023/09/30 13:04:45;;;;;;;614.87;566.40;;;;;33.70;97460.00;;;;5040315;28;20862;-69
2023/09/30 13:07:34;;;;;;;594.97;547.70;;;;;31.80;97413.00;;;;5042184;28;20228;-69
2023/09/30 13:10:25;;;;;;;610.93;561.73;;;;;31.80;97453.00;;;;5044110;28;20204;-68
2023/09/30 13:13:14;;;;;;;602.00;553.33;;;;;33.10;97453.00;;;;5076271;28;20218;-68
2023/09/30 13:16:05;;;;;;;606.83;558.43;;;;;31.80;97475.00;;;;5086222;28;20211;-68
2023/09/30 13:18:54;;;;;;;594.90;547.03;;;;;33.00;97468.00;;;;5080739;28;20202;-68
2023/09/30 13:21:43;;;;;;;574.47;526.73;;;;;31.80;97475.00;;;;5086173;28;20277;-68
2023/09/30 13:24:37;;;;;;;558.63;511.83;;;;;30.30;97469.00;;;;5083042;28;20249;-68
2023/09/30 13:27:28;;;;;;;572.87;524.47;;;;;32.40;97412.00;;;;5082202;28;20236;-69
2023/09/30 13:30:17;;;;;;;551.77;504.47;;;;;33.30;97470.00;;;;5084747;28;20253;-68
2023/09/30 13:33:06;;;;;;;571.80;524.07;;;;;32.80;97421.00;;;;5084097;28;20219;-68
2023/09/30 13:35:55;;;;;;;576.87;528.07;;;;;33.50;97421.00;;;;5083397;28;20219;-68
2023/09/30 13:38:46;;;;;;;580.87;531.20;;;;;34.80;97415.00;;;;5077694;28;20200;-68
2023/09/30 13:41:38;;;;;;;561.40;515.13;;;;;34.10;97468.00;;;;5079830;28;20218;-69
2023/09/30 13:44:28;;;;;;;586.80;539.43;;;;;33.90;97464.00;;;;5077066;28;20206;-69